Time;durP1;ratioP1;P1;durP2;ratioP2;P2;SDS_P1;SDS_P2;PMS_P1;PMS_P2;Temp;Humidity;BMP_temperature;BMP_pressure;BME280_temperature;BME280_humidity;BME280_pressure;Samples;Min_cycle;Max_cycle;Signal;HPM_P1;HPM_P2
2023/03/21 00:00:54;;;;;;;1.57;1.47;;;23.40;55.90;;;;;;5073603;28;20483;-79
2023/03/21 00:03:23;;;;;;;1.40;1.30;;;23.40;55.90;;;;;;5068440;28;20499;-79
2023/03/21 00:05:52;;;;;;;1.80;1.33;;;23.40;55.90;;;;;;5072279;28;20462;-79
2023/03/21 00:08:21;;;;;;;1.20;1.10;;;23.40;55.90;;;;;;5070959;28;20454;-79
2023/03/21 00:10:58;;;;;;;1.50;1.40;;;23.40;55.90;;;;;;5073782;28;20545;-79
2023/03/21 00:13:27;;;;;;;1.90;1.60;;;23.40;55.90;;;;;;5073232;28;20456;-79
2023/03/21 00:15:56;;;;;;;1.47;1.37;;;23.40;55.90;;;;;;5073690;28;20592;-79
2023/03/21 00:18:45;;;;;;;1.50;1.40;;;23.40;55.90;;;;;;5071387;28;20466;-79
2023/03/21 00:21:15;;;;;;;1.60;1.50;;;23.40;55.90;;;;;;5072196;28;20459;-79
2023/03/21 00:24:04;;;;;;;1.27;1.17;;;23.40;55.90;;;;;;5060797;28;20859;-79
2023/03/21 00:26:34;;;;;;;2.60;1.50;;;23.40;55.90;;;;;;5073712;28;20573;-79
2023/03/21 00:29:02;;;;;;;1.50;1.37;;;23.40;56.00;;;;;;5071786;28;20466;-79
2023/03/21 00:31:30;;;;;;;1.17;1.10;;;23.40;56.00;;;;;;5071948;28;20547;-79
2023/03/21 00:34:00;;;;;;;2.07;1.70;;;23.40;56.00;;;;;;5054922;28;20465;-79
2023/03/21 00:36:30;;;;;;;1.13;1.03;;;23.40;56.00;;;;;;5054345;28;20459;-79
2023/03/21 00:38:59;;;;;;;1.20;1.10;;;23.40;56.00;;;;;;5054610;28;20945;-79
2023/03/21 00:41:28;;;;;;;2.00;1.80;;;23.30;56.00;;;;;;5077177;28;20457;-79
2023/03/21 00:44:14;;;;;;;1.60;1.40;;;23.40;56.00;;;;;;5067313;28;20460;-79
2023/03/21 00:46:43;;;;;;;2.47;1.60;;;23.40;56.00;;;;;;5073888;28;21046;-79
2023/03/21 00:49:32;;;;;;;1.60;1.50;;;23.30;56.00;;;;;;5072622;28;20443;-79
2023/03/21 00:52:03;;;;;;;1.90;1.70;;;23.30;56.00;;;;;;5064351;28;20546;-79
2023/03/21 00:54:45;;;;;;;1.47;1.37;;;23.30;56.00;;;;;;5049878;28;20499;-79
2023/03/21 00:57:13;;;;;;;2.03;1.70;;;23.30;56.00;;;;;;5073528;28;20455;-79
2023/03/21 00:59:43;;;;;;;2.50;1.50;;;23.30;56.00;;;;;;5072015;28;20808;-79
2023/03/21 01:02:13;;;;;;;1.40;1.23;;;23.30;56.00;;;;;;5067518;28;20446;-79
2023/03/21 01:04:42;;;;;;;1.70;1.60;;;23.30;56.00;;;;;;5070102;28;20555;-79
2023/03/21 01:07:10;;;;;;;2.07;1.87;;;23.30;56.00;;;;;;5072484;28;20474;-79
2023/03/21 01:09:38;;;;;;;1.70;1.60;;;23.30;56.00;;;;;;5035066;28;20447;-79
2023/03/21 01:12:06;;;;;;;3.13;1.77;;;23.30;56.00;;;;;;5048063;28;20490;-79
2023/03/21 01:14:37;;;;;;;1.43;1.33;;;23.30;56.00;;;;;;5070071;28;20803;-79
2023/03/21 01:17:07;;;;;;;1.83;1.60;;;23.30;55.90;;;;;;5071447;28;20524;-79
2023/03/21 01:19:35;;;;;;;2.07;1.97;;;23.30;55.90;;;;;;5070440;28;20442;-79
2023/03/21 01:22:18;;;;;;;1.67;1.57;;;23.30;55.90;;;;;;5071893;28;20476;-79
2023/03/21 01:24:46;;;;;;;1.60;1.50;;;23.30;55.90;;;;;;5070292;28;20537;-79
2023/03/21 01:27:25;;;;;;;1.53;1.43;;;23.30;55.90;;;;;;5072606;28;20477;-79
2023/03/21 01:29:54;;;;;;;1.40;1.30;;;23.30;55.90;;;;;;5053484;28;20459;-79
2023/03/21 01:32:23;;;;;;;1.43;1.33;;;23.30;55.90;;;;;;5072168;28;20940;-79
2023/03/21 01:34:51;;;;;;;1.77;1.67;;;23.30;55.90;;;;;;5069017;28;20455;-79
2023/03/21 01:37:25;;;;;;;1.10;1.10;;;23.30;55.90;;;;;;5054620;28;20524;-79
2023/03/21 01:39:53;;;;;;;2.07;1.50;;;23.30;55.90;;;;;;5072425;28;21017;-79
2023/03/21 01:42:22;;;;;;;1.60;1.50;;;23.30;55.90;;;;;;5042524;28;21022;-79
2023/03/21 01:44:56;;;;;;;1.60;1.50;;;23.30;55.90;;;;;;5053449;28;20470;-79
2023/03/21 01:47:30;;;;;;;1.67;1.57;;;23.30;56.00;;;;;;5054187;28;20486;-79
2023/03/21 01:50:17;;;;;;;1.30;1.20;;;23.30;56.00;;;;;;5053331;28;20467;-79
2023/03/21 01:52:54;;;;;;;2.00;1.30;;;23.30;55.90;;;;;;5056490;28;20461;-79
2023/03/21 01:55:28;;;;;;;1.77;1.67;;;23.30;56.00;;;;;;5053359;28;20486;-79
2023/03/21 01:58:02;;;;;;;1.73;1.63;;;23.30;56.00;;;;;;5053829;28;20458;-79
2023/03/21 02:01:05;;;;;;;1.67;1.57;;;23.30;56.00;;;;;;4999427;28;20458;-79
2023/03/21 02:03:50;;;;;;;2.03;1.50;;;23.30;56.00;;;;;;5066938;28;20534;-79
2023/03/21 02:06:48;;;;;;;1.80;1.70;;;23.30;56.00;;;;;;5055796;28;20454;-79
2023/03/21 02:09:30;;;;;;;1.40;1.30;;;23.30;56.00;;;;;;5041756;28;20457;-79
2023/03/21 02:12:00;;;;;;;2.33;1.63;;;23.20;56.00;;;;;;5058964;28;20462;-79
2023/03/21 02:14:36;;;;;;;1.77;1.67;;;23.20;56.00;;;;;;5053175;28;21395;-79
2023/03/21 02:17:19;;;;;;;2.10;2.00;;;23.20;56.00;;;;;;5055042;28;20517;-79
2023/03/21 02:20:36;;;;;;;1.80;1.70;;;23.20;56.00;;;;;;5048605;28;20952;-79
2023/03/21 02:23:35;;;;;;;1.57;1.47;;;23.20;56.00;;;;;;5002865;28;20474;-79
2023/03/21 02:26:31;;;;;;;1.93;1.73;;;23.20;56.00;;;;;;5051107;28;20469;-79
2023/03/21 02:29:21;;;;;;;2.03;1.93;;;23.20;56.00;;;;;;5071095;28;20990;-79
2023/03/21 02:32:00;;;;;;;1.40;1.30;;;23.20;56.00;;;;;;5053663;28;20983;-79
2023/03/21 02:35:05;;;;;;;1.70;1.53;;;23.20;56.00;;;;;;5050603;28;21060;-79
2023/03/21 02:37:39;;;;;;;1.67;1.57;;;23.20;56.00;;;;;;5052805;28;20518;-79
2023/03/21 02:40:16;;;;;;;1.70;1.60;;;23.20;56.00;;;;;;5071295;28;20445;-79
2023/03/21 02:42:56;;;;;;;1.80;1.70;;;23.20;56.00;;;;;;5053006;28;20451;-79
2023/03/21 02:45:39;;;;;;;1.67;1.57;;;23.20;56.00;;;;;;5049341;28;20463;-79
2023/03/21 02:48:11;;;;;;;1.53;1.43;;;23.20;55.90;;;;;;5045141;28;20469;-79
2023/03/21 02:50:57;;;;;;;1.80;1.70;;;23.20;56.00;;;;;;5070652;28;20446;-79
2023/03/21 02:53:32;;;;;;;2.70;1.67;;;23.20;55.90;;;;;;5077187;28;20470;-79
2023/03/21 02:56:09;;;;;;;1.70;1.60;;;23.20;55.90;;;;;;5040608;28;20453;-79
2023/03/21 02:58:43;;;;;;;1.70;1.60;;;23.20;55.90;;;;;;5052443;28;20468;-79
2023/03/21 03:01:11;;;;;;;1.57;1.47;;;23.20;55.90;;;;;;5035525;28;20507;-79
2023/03/21 03:03:46;;;;;;;1.57;1.47;;;23.20;55.90;;;;;;5052224;28;20455;-79
2023/03/21 03:06:19;;;;;;;1.60;1.50;;;23.20;55.90;;;;;;5051013;28;20481;-79
2023/03/21 03:09:05;;;;;;;1.53;1.43;;;23.20;55.90;;;;;;5052463;28;20578;-79
2023/03/21 03:11:36;;;;;;;1.97;1.30;;;23.20;55.90;;;;;;5052347;28;21000;-79
2023/03/21 03:14:25;;;;;;;1.67;1.57;;;23.20;55.90;;;;;;5069482;28;20484;-79
2023/03/21 03:17:22;;;;;;;1.90;1.80;;;23.20;56.00;;;;;;5049247;28;20455;-79
2023/03/21 03:20:05;;;;;;;2.03;1.83;;;23.20;55.90;;;;;;5051440;28;20458;-79
2023/03/21 03:22:54;;;;;;;2.70;1.37;;;23.20;55.90;;;;;;5051970;28;20469;-79
2023/03/21 03:25:30;;;;;;;1.80;1.60;;;23.30;55.90;;;;;;5067909;28;20489;-79
2023/03/21 03:28:17;;;;;;;1.50;1.40;;;23.30;55.80;;;;;;5053835;28;20482;-79
2023/03/21 03:30:48;;;;;;;1.60;1.50;;;23.30;55.80;;;;;;5051831;28;20467;-79
2023/03/21 03:33:43;;;;;;;1.60;1.50;;;23.30;55.80;;;;;;5066917;28;20473;-79
2023/03/21 03:36:16;;;;;;;1.60;1.50;;;23.20;55.80;;;;;;5041405;28;20464;-79
2023/03/21 03:39:10;;;;;;;1.53;1.43;;;23.30;55.80;;;;;;5055940;28;20462;-79
2023/03/21 03:41:47;;;;;;;1.97;1.87;;;23.20;55.80;;;;;;5070179;28;20455;-79
2023/03/21 03:44:40;;;;;;;1.33;1.23;;;23.20;55.80;;;;;;5050842;28;20479;-79
2023/03/21 03:47:11;;;;;;;1.70;1.60;;;23.20;55.80;;;;;;5044745;28;20945;-79
2023/03/21 03:50:08;;;;;;;1.83;1.73;;;23.20;55.80;;;;;;5039579;28;20481;-79
2023/03/21 03:52:40;;;;;;;1.80;1.70;;;23.20;55.80;;;;;;5068116;28;20452;-79
2023/03/21 03:55:26;;;;;;;1.63;1.53;;;23.20;55.80;;;;;;5043321;28;20455;-79
2023/03/21 03:57:59;;;;;;;2.50;1.87;;;23.20;55.80;;;;;;5053369;28;20458;-79
2023/03/21 04:00:27;;;;;;;1.90;1.80;;;23.20;55.70;;;;;;5073595;28;20447;-79
2023/03/21 04:02:57;;;;;;;1.93;1.83;;;23.20;55.70;;;;;;5054803;28;20953;-79
2023/03/21 04:05:27;;;;;;;1.73;1.63;;;23.20;55.80;;;;;;5051649;28;20464;-79
2023/03/21 04:07:55;;;;;;;1.90;1.70;;;23.20;55.70;;;;;;5065573;28;20458;-79
2023/03/21 04:10:33;;;;;;;1.70;1.60;;;23.20;55.70;;;;;;5055741;28;20446;-79
2023/03/21 04:13:03;;;;;;;2.17;2.03;;;23.20;55.70;;;;;;5067153;28;20455;-79
2023/03/21 04:15:44;;;;;;;1.70;1.60;;;23.20;55.70;;;;;;5068754;28;20867;-79
2023/03/21 04:18:15;;;;;;;2.00;1.80;;;23.10;55.70;;;;;;5046632;28;20474;-79
2023/03/21 04:20:44;;;;;;;1.53;1.43;;;23.10;55.70;;;;;;5077317;28;20490;-79
2023/03/21 04:23:13;;;;;;;2.40;2.20;;;23.20;55.70;;;;;;5054631;28;20527;-79
2023/03/21 04:25:45;;;;;;;1.23;1.23;;;23.20;55.70;;;;;;5061164;28;20490;-79
2023/03/21 04:28:30;;;;;;;1.50;1.40;;;23.20;55.70;;;;;;5054236;28;20481;-79
2023/03/21 04:31:06;;;;;;;2.13;2.00;;;23.10;55.70;;;;;;5053573;28;20554;-79
2023/03/21 04:33:51;;;;;;;1.70;1.60;;;23.10;55.70;;;;;;5054632;28;20462;-79
2023/03/21 04:36:26;;;;;;;2.03;1.93;;;23.10;55.70;;;;;;5055256;28;20465;-79
2023/03/21 04:38:59;;;;;;;1.60;1.50;;;23.10;55.70;;;;;;5054912;28;20454;-79
2023/03/21 04:41:28;;;;;;;1.87;1.77;;;23.10;55.70;;;;;;5054233;28;20463;-79
2023/03/21 04:43:58;;;;;;;1.80;1.70;;;23.10;55.70;;;;;;5054955;28;20455;-79
2023/03/21 04:46:26;;;;;;;1.47;1.37;;;23.10;55.70;;;;;;5052763;28;20466;-79
2023/03/21 04:48:55;;;;;;;1.67;1.57;;;23.10;55.70;;;;;;5070862;28;20478;-79
2023/03/21 04:51:23;;;;;;;1.63;1.53;;;23.10;55.70;;;;;;5071818;28;20455;-79
2023/03/21 04:53:56;;;;;;;1.80;1.70;;;23.10;55.70;;;;;;5054485;28;21341;-79
2023/03/21 04:56:30;;;;;;;1.70;1.60;;;23.10;55.70;;;;;;5055400;28;20821;-79
2023/03/21 04:59:02;;;;;;;1.90;1.70;;;23.20;55.70;;;;;;5078312;28;20448;-79
2023/03/21 05:01:30;;;;;;;1.40;1.30;;;23.20;55.70;;;;;;5052978;28;20463;-79
2023/03/21 05:03:58;;;;;;;1.73;1.63;;;23.20;55.60;;;;;;5056085;28;20805;-79
2023/03/21 05:06:27;;;;;;;1.90;1.80;;;23.20;55.60;;;;;;5078551;28;20456;-79
2023/03/21 05:08:58;;;;;;;1.60;1.50;;;23.20;55.60;;;;;;5077535;28;20565;-79
2023/03/21 05:11:29;;;;;;;1.87;1.70;;;23.20;55.60;;;;;;5063018;28;20453;-79
2023/03/21 05:13:58;;;;;;;2.03;1.87;;;23.20;55.60;;;;;;5058994;28;20976;-79
2023/03/21 05:16:29;;;;;;;1.50;1.40;;;23.20;55.50;;;;;;5056328;28;20453;-79
2023/03/21 05:19:02;;;;;;;1.70;1.60;;;23.20;55.50;;;;;;5049190;28;20462;-78
2023/03/21 05:21:40;;;;;;;1.67;1.57;;;23.20;55.50;;;;;;5045508;28;20458;-79
2023/03/21 05:24:15;;;;;;;1.70;1.60;;;23.20;55.50;;;;;;5052375;28;20498;-79
2023/03/21 05:26:49;;;;;;;2.00;1.87;;;23.20;55.50;;;;;;5054673;28;21209;-79
2023/03/21 05:29:19;;;;;;;1.90;1.80;;;23.20;55.50;;;;;;5052990;28;20477;-79
2023/03/21 05:32:07;;;;;;;1.63;1.53;;;23.10;55.50;;;;;;5050543;28;20508;-79
2023/03/21 05:34:37;;;;;;;2.20;2.00;;;23.10;55.50;;;;;;5061537;28;20451;-79
2023/03/21 05:37:05;;;;;;;1.60;1.50;;;23.10;55.50;;;;;;5053935;28;20494;-79
2023/03/21 05:39:51;;;;;;;1.63;1.53;;;23.20;55.50;;;;;;5052526;28;20511;-79
2023/03/21 05:42:41;;;;;;;1.20;1.17;;;23.10;55.60;;;;;;5049536;28;20471;-79
2023/03/21 05:45:16;;;;;;;1.37;1.30;;;23.10;55.60;;;;;;5053776;28;20476;-79
2023/03/21 05:47:45;;;;;;;1.40;1.33;;;23.10;55.60;;;;;;5053465;28;20543;-79
2023/03/21 05:50:14;;;;;;;1.80;1.70;;;23.20;55.60;;;;;;5048830;28;20872;-79
2023/03/21 05:52:49;;;;;;;1.50;1.40;;;23.10;55.60;;;;;;5060996;28;20453;-79
2023/03/21 05:55:18;;;;;;;1.70;1.60;;;23.10;55.70;;;;;;5079692;28;20522;-80
2023/03/21 05:57:46;;;;;;;1.63;1.53;;;23.20;55.70;;;;;;5049434;28;20487;-79
2023/03/21 06:00:22;;;;;;;2.37;1.90;;;23.20;55.80;;;;;;5053462;28;20597;-80
2023/03/21 06:03:07;;;;;;;1.90;1.80;;;23.20;55.90;;;;;;5049017;28;20483;-80
2023/03/21 06:05:55;;;;;;;2.80;1.47;;;23.20;55.90;;;;;;5065468;28;20548;-81
2023/03/21 06:08:28;;;;;;;3.40;1.50;;;23.20;56.00;;;;;;5058589;28;20450;-80
2023/03/21 06:10:56;;;;;;;2.07;1.57;;;23.20;56.20;;;;;;5063697;28;20540;-80
2023/03/21 06:13:25;;;;;;;1.40;1.30;;;23.20;56.20;;;;;;5052342;28;20463;-79
2023/03/21 06:15:53;;;;;;;3.30;1.97;;;23.20;56.20;;;;;;5056041;28;20477;-79
2023/03/21 06:18:26;;;;;;;1.60;1.50;;;23.20;56.20;;;;;;5047578;28;20458;-79
2023/03/21 06:21:01;;;;;;;1.83;1.73;;;23.20;56.30;;;;;;5048348;28;20475;-79
2023/03/21 06:23:29;;;;;;;1.93;1.60;;;23.20;56.30;;;;;;5055736;28;21113;-79
2023/03/21 06:25:58;;;;;;;1.63;1.53;;;23.20;56.40;;;;;;5053686;28;20465;-79
2023/03/21 06:28:27;;;;;;;2.80;1.60;;;23.20;56.40;;;;;;5053279;28;20509;-79
2023/03/21 06:30:55;;;;;;;1.50;1.40;;;23.20;56.40;;;;;;5070126;28;20481;-79
2023/03/21 06:33:27;;;;;;;2.33;2.03;;;23.20;56.40;;;;;;5047468;28;20541;-79
2023/03/21 06:35:57;;;;;;;6.07;2.13;;;23.20;56.40;;;;;;5071239;28;20525;-79
2023/03/21 06:38:26;;;;;;;9.73;4.53;;;23.20;56.50;;;;;;5052375;28;20472;-79
2023/03/21 06:40:54;;;;;;;8.70;3.90;;;23.20;62.80;;;;;;5067937;28;20944;-79
2023/03/21 06:43:25;;;;;;;5.50;3.33;;;23.20;63.20;;;;;;5050413;28;20524;-79
2023/03/21 06:45:53;;;;;;;9.20;3.17;;;23.30;63.60;;;;;;5033024;28;20459;-79
2023/03/21 06:48:21;;;;;;;10.53;3.50;;;23.30;62.90;;;;;;5071323;28;20458;-79
2023/03/21 06:50:53;;;;;;;6.20;4.00;;;23.30;62.90;;;;;;5043857;28;20471;-79
2023/03/21 06:53:26;;;;;;;7.63;3.07;;;23.30;63.00;;;;;;5045109;28;20917;-79
2023/03/21 06:56:17;;;;;;;7.90;3.50;;;23.30;64.50;;;;;;5053493;28;20463;-79
2023/03/21 06:58:46;;;;;;;7.77;2.80;;;23.40;64.00;;;;;;5038938;28;20549;-79
2023/03/21 07:01:26;;;;;;;6.80;2.80;;;23.30;63.90;;;;;;5048353;28;20475;-79
2023/03/21 07:04:03;;;;;;;6.77;3.00;;;23.40;64.00;;;;;;5058562;28;20466;-79
2023/03/21 07:06:33;;;;;;;5.47;3.40;;;23.40;63.70;;;;;;5041016;28;20503;-79
2023/03/21 07:09:01;;;;;;;5.83;2.57;;;23.40;63.30;;;;;;5066954;28;20492;-79
2023/03/21 07:11:32;;;;;;;7.03;3.00;;;23.40;62.90;;;;;;5051936;28;20474;-80
2023/03/21 07:14:01;;;;;;;2.90;2.50;;;23.40;62.60;;;;;;5045472;28;20895;-78
2023/03/21 07:16:29;;;;;;;7.27;2.63;;;23.40;62.30;;;;;;5065901;28;20978;-79
2023/03/21 07:18:57;;;;;;;5.50;2.87;;;23.40;61.90;;;;;;5045055;28;20474;-82
2023/03/21 07:21:26;;;;;;;3.83;3.03;;;23.40;61.50;;;;;;5050859;28;20463;-83
2023/03/21 07:23:56;;;;;;;62.90;36.10;;;23.40;62.30;;;;;;5052069;28;20493;-80
2023/03/21 07:26:25;;;;;;;492.77;290.30;;;23.40;62.20;;;;;;5049962;28;20466;-80
2023/03/21 07:28:53;;;;;;;339.40;197.20;;;23.40;62.10;;;;;;5077078;28;20463;-79
2023/03/21 07:31:24;;;;;;;135.37;80.00;;;23.40;61.90;;;;;;5068752;28;20798;-85
2023/03/21 07:33:53;;;;;;;94.50;56.70;;;23.50;61.90;;;;;;5057032;28;20559;-86
2023/03/21 07:36:23;;;;;;;94.03;54.30;;;23.50;61.10;;;;;;5053523;28;20484;-76
2023/03/21 07:38:51;;;;;;;96.63;54.97;;;23.50;61.00;;;;;;5079384;28;21244;-76
2023/03/21 07:41:24;;;;;;;81.20;48.83;;;23.50;60.90;;;;;;5065815;28;20968;-77
2023/03/21 07:43:53;;;;;;;71.43;44.70;;;23.50;60.80;;;;;;5070093;28;20512;-76
2023/03/21 07:46:21;;;;;;;60.20;39.73;;;23.50;60.70;;;;;;5082374;28;20454;-77
2023/03/21 07:48:49;;;;;;;61.47;37.60;;;23.60;60.60;;;;;;5076111;28;20461;-77
2023/03/21 07:51:17;;;;;;;56.23;33.97;;;23.60;60.40;;;;;;5082155;28;20910;-77
2023/03/21 07:53:47;;;;;;;47.90;29.90;;;23.60;60.30;;;;;;5072714;28;20534;-77
2023/03/21 07:56:15;;;;;;;43.20;27.43;;;23.60;60.10;;;;;;5059300;28;20456;-78
2023/03/21 07:58:45;;;;;;;49.07;27.70;;;23.70;60.00;;;;;;5072908;28;20941;-77
2023/03/21 08:01:13;;;;;;;38.20;22.80;;;23.70;60.00;;;;;;5080608;28;20952;-79
2023/03/21 08:03:42;;;;;;;33.37;22.13;;;23.70;59.80;;;;;;5071133;28;20463;-79
2023/03/21 08:06:11;;;;;;;30.87;19.80;;;23.70;59.70;;;;;;5074526;28;21035;-81
2023/03/21 08:08:39;;;;;;;26.03;18.67;;;23.80;59.60;;;;;;5074778;28;20465;-81
2023/03/21 08:11:08;;;;;;;28.30;17.80;;;23.80;59.50;;;;;;5073369;28;20514;-79
2023/03/21 08:13:36;;;;;;;24.90;16.83;;;23.80;59.40;;;;;;5075575;28;21006;-80
2023/03/21 08:16:07;;;;;;;23.47;15.33;;;23.80;59.30;;;;;;5080112;28;20537;-81
2023/03/21 08:18:35;;;;;;;20.17;13.70;;;23.80;59.30;;;;;;5073772;28;20465;-78
2023/03/21 08:21:03;;;;;;;21.30;13.13;;;23.90;59.20;;;;;;5073727;28;20495;-80
2023/03/21 08:23:31;;;;;;;20.60;13.00;;;23.90;59.10;;;;;;5072628;28;20441;-76
2023/03/21 08:26:00;;;;;;;18.80;13.50;;;23.90;59.10;;;;;;5060771;28;20532;-77
2023/03/21 08:28:28;;;;;;;16.07;11.50;;;23.90;59.00;;;;;;5047975;28;20450;-77
2023/03/21 08:30:56;;;;;;;18.90;11.00;;;23.90;59.00;;;;;;5067386;28;20479;-77
2023/03/21 08:33:26;;;;;;;15.77;10.07;;;23.90;58.90;;;;;;5055434;28;20708;-77
2023/03/21 08:35:54;;;;;;;17.80;11.67;;;23.90;58.90;;;;;;5058722;28;20499;-80
2023/03/21 08:38:22;;;;;;;13.23;8.77;;;23.90;58.80;;;;;;5053114;28;20454;-80
2023/03/21 08:40:51;;;;;;;11.57;8.53;;;24.00;58.70;;;;;;5041458;28;20457;-82
2023/03/21 08:43:19;;;;;;;11.10;8.07;;;24.00;58.70;;;;;;5054441;28;20441;-81
2023/03/21 08:45:47;;;;;;;10.90;8.60;;;24.00;58.70;;;;;;5061769;28;20485;-80
2023/03/21 08:48:15;;;;;;;13.33;8.00;;;24.00;58.60;;;;;;5052062;28;20444;-82
2023/03/21 08:50:45;;;;;;;14.30;7.97;;;24.00;58.60;;;;;;5052936;28;20843;-83
2023/03/21 08:53:14;;;;;;;11.07;9.03;;;24.00;58.50;;;;;;5054765;28;20455;-84
2023/03/21 08:55:43;;;;;;;8.90;7.53;;;24.00;58.40;;;;;;5040551;28;20544;-78
2023/03/21 08:58:11;;;;;;;11.90;7.33;;;24.00;58.40;;;;;;5053692;28;20461;-78
2023/03/21 09:00:39;;;;;;;9.67;7.07;;;24.10;58.40;;;;;;5053761;28;20455;-85
2023/03/21 09:03:07;;;;;;;11.27;6.93;;;24.10;58.40;;;;;;5052504;28;20952;-81
2023/03/21 09:05:38;;;;;;;11.50;6.90;;;24.10;58.30;;;;;;5055205;28;20455;-82
2023/03/21 09:08:08;;;;;;;8.83;6.63;;;24.10;58.30;;;;;;5040218;28;20527;-82
2023/03/21 09:10:36;;;;;;;10.18;6.97;;;24.10;58.10;;;;;;5063131;28;20906;-80
2023/03/21 09:13:05;;;;;;;8.20;6.60;;;24.10;58.10;;;;;;5041193;28;20310;-79
2023/03/21 09:15:34;;;;;;;7.67;6.83;;;24.10;58.10;;;;;;5057954;28;20472;-79
2023/03/21 09:18:12;;;;;;;8.20;5.43;;;24.10;58.00;;;;;;5054170;28;20942;-80
2023/03/21 09:20:41;;;;;;;9.23;5.40;;;24.20;58.00;;;;;;5040261;28;20450;-79
2023/03/21 09:23:12;;;;;;;7.23;5.70;;;24.20;57.90;;;;;;5055700;28;20535;-77
2023/03/21 09:25:41;;;;;;;7.83;4.37;;;24.20;57.80;;;;;;5060767;28;20481;-79
2023/03/21 09:28:09;;;;;;;7.60;5.03;;;24.20;57.80;;;;;;5044839;28;20451;-78
2023/03/21 09:30:37;;;;;;;5.97;4.83;;;24.20;57.80;;;;;;5031318;28;20837;-78
2023/03/21 09:33:11;;;;;;;6.43;5.13;;;24.30;57.50;;;;;;5021803;28;20465;-78
2023/03/21 09:35:40;;;;;;;8.40;5.03;;;24.30;57.50;;;;;;5064160;28;20443;-82
2023/03/21 09:38:09;;;;;;;4.97;4.40;;;24.30;57.40;;;;;;5054534;28;20462;-79
2023/03/21 09:40:53;;;;;;;7.70;4.70;;;24.30;57.30;;;;;;5025636;28;20444;-79
2023/03/21 09:43:34;;;;;;;5.33;4.40;;;24.30;57.30;;;;;;5032206;28;20452;-79
2023/03/21 09:46:09;;;;;;;7.07;4.60;;;24.40;57.20;;;;;;5055452;28;20503;-79
2023/03/21 09:48:46;;;;;;;6.10;4.00;;;24.40;57.10;;;;;;5052678;28;20471;-79
2023/03/21 09:51:30;;;;;;;6.90;4.10;;;24.40;57.10;;;;;;5051624;28;22417;-81
2023/03/21 09:54:02;;;;;;;6.57;4.40;;;24.40;57.00;;;;;;5052457;28;21336;-80
2023/03/21 09:56:32;;;;;;;6.50;4.33;;;24.40;57.00;;;;;;5056017;28;20487;-78
2023/03/21 09:59:02;;;;;;;8.80;4.50;;;24.40;57.00;;;;;;5053803;28;20654;-82
2023/03/21 10:01:33;;;;;;;6.90;4.30;;;24.50;57.00;;;;;;5055347;28;20455;-79
2023/03/21 10:04:04;;;;;;;4.80;4.33;;;24.50;56.90;;;;;;5046511;28;21040;-79
2023/03/21 10:06:38;;;;;;;5.20;4.07;;;24.50;56.90;;;;;;5063850;28;20532;-79
2023/03/21 10:09:13;;;;;;;8.30;3.50;;;24.50;56.80;;;;;;5059751;28;20802;-81
2023/03/21 10:11:46;;;;;;;4.70;3.37;;;24.60;56.80;;;;;;5052043;28;21151;-81
2023/03/21 10:14:21;;;;;;;4.27;3.27;;;24.60;56.70;;;;;;5051914;28;20461;-79
2023/03/21 10:16:51;;;;;;;8.57;3.27;;;24.60;56.70;;;;;;5055066;28;20441;-78
2023/03/21 10:19:22;;;;;;;3.70;2.77;;;24.60;56.70;;;;;;5060894;28;20467;-80
2023/03/21 10:21:51;;;;;;;3.53;3.20;;;24.60;56.60;;;;;;5051011;28;20440;-79
2023/03/21 10:24:33;;;;;;;5.30;3.30;;;24.60;56.70;;;;;;5057304;28;20482;-81
2023/03/21 10:27:04;;;;;;;3.43;3.13;;;24.60;56.60;;;;;;5061365;28;20975;-79
2023/03/21 10:29:36;;;;;;;4.57;3.33;;;24.60;56.60;;;;;;5068944;28;20453;-79
2023/03/21 10:32:08;;;;;;;7.30;2.97;;;24.60;56.60;;;;;;5066079;28;20474;-78
2023/03/21 10:34:40;;;;;;;3.60;3.00;;;24.60;56.60;;;;;;5069920;28;20525;-78
2023/03/21 10:37:08;;;;;;;3.63;3.13;;;24.60;56.60;;;;;;5073094;28;20826;-79
2023/03/21 10:39:39;;;;;;;3.70;3.10;;;24.70;56.70;;;;;;5070617;28;20442;-80
2023/03/21 10:42:18;;;;;;;4.00;2.47;;;24.70;56.60;;;;;;5070563;28;20511;-80
2023/03/21 10:44:48;;;;;;;4.93;2.90;;;24.70;56.60;;;;;;5053682;28;20460;-80
2023/03/21 10:47:20;;;;;;;3.57;3.10;;;24.70;56.50;;;;;;5071087;28;20458;-80
2023/03/21 10:49:49;;;;;;;4.37;2.80;;;24.80;56.50;;;;;;5075329;28;20451;-81
2023/03/21 10:52:35;;;;;;;3.60;2.80;;;24.80;56.30;;;;;;5078814;28;20561;-80
2023/03/21 10:55:15;;;;;;;3.33;3.03;;;24.90;56.10;;;;;;5070690;28;20474;-79
2023/03/21 10:57:46;;;;;;;6.60;2.97;;;24.90;56.00;;;;;;5069847;28;20447;-77
2023/03/21 11:00:21;;;;;;;2.60;2.37;;;25.00;55.80;;;;;;5070295;28;20491;-78
2023/03/21 11:02:51;;;;;;;2.77;2.10;;;25.10;55.70;;;;;;5081260;28;20455;-79
2023/03/21 11:05:24;;;;;;;3.63;2.37;;;25.30;55.50;;;;;;5074061;28;20483;-79
2023/03/21 11:08:05;;;;;;;3.53;2.73;;;25.40;55.20;;;;;;5069627;28;20452;-78
2023/03/21 11:10:35;;;;;;;6.20;2.67;;;25.60;54.80;;;;;;5061067;28;20457;-81
2023/03/21 11:13:08;;;;;;;2.53;2.33;;;25.70;54.50;;;;;;5067398;28;20471;-80
2023/03/21 11:15:46;;;;;;;2.90;2.50;;;25.80;54.30;;;;;;5070090;28;20962;-79
2023/03/21 11:18:17;;;;;;;2.17;1.97;;;25.90;54.10;;;;;;5055726;28;20440;-78
2023/03/21 11:20:51;;;;;;;2.90;2.33;;;26.00;53.90;;;;;;5043428;28;20447;-79
2023/03/21 11:23:20;;;;;;;2.90;2.43;;;26.10;53.70;;;;;;5070075;28;20481;-79
2023/03/21 11:25:50;;;;;;;2.43;2.00;;;26.10;53.40;;;;;;5060061;28;20591;-80
2023/03/21 11:28:23;;;;;;;3.20;2.50;;;26.10;53.50;;;;;;5081055;28;20456;-80
2023/03/21 11:30:54;;;;;;;2.93;2.20;;;26.00;53.30;;;;;;5075218;28;20959;-81
2023/03/21 11:33:26;;;;;;;3.13;2.40;;;25.90;53.70;;;;;;5062717;28;20693;-80
2023/03/21 11:36:00;;;;;;;5.00;2.50;;;25.80;54.10;;;;;;5070060;28;20808;-79
2023/03/21 11:38:32;;;;;;;5.20;2.17;;;25.70;54.20;;;;;;5058644;28;20456;-79
2023/03/21 11:41:01;;;;;;;2.43;2.20;;;25.70;54.40;;;;;;5069185;28;20455;-80
2023/03/21 11:43:34;;;;;;;1.60;1.50;;;25.60;54.60;;;;;;5072815;28;20539;-78
2023/03/21 11:46:08;;;;;;;2.43;2.13;;;25.60;54.30;;;;;;5065975;28;20511;-78
2023/03/21 11:48:40;;;;;;;2.10;2.00;;;25.60;54.20;;;;;;5065274;28;20496;-78
2023/03/21 11:51:16;;;;;;;3.43;1.73;;;25.70;54.00;;;;;;5058237;28;20467;-79
2023/03/21 11:53:49;;;;;;;2.37;2.17;;;25.70;53.90;;;;;;5068877;28;20476;-77
2023/03/21 11:56:25;;;;;;;5.60;2.70;;;25.80;53.80;;;;;;5071775;28;20466;-78
2023/03/21 11:59:16;;;;;;;2.80;2.20;;;25.90;53.60;;;;;;5075738;28;21132;-78
2023/03/21 12:01:57;;;;;;;3.00;2.10;;;26.00;53.50;;;;;;5062907;28;20497;-79
2023/03/21 12:04:39;;;;;;;3.93;2.20;;;26.10;53.30;;;;;;5056238;28;20450;-81
2023/03/21 12:07:27;;;;;;;1.90;1.80;;;26.30;53.10;;;;;;5066729;28;20452;-80
2023/03/21 12:10:03;;;;;;;2.10;2.00;;;26.40;52.80;;;;;;5070654;28;20453;-80
2023/03/21 12:12:42;;;;;;;2.50;2.30;;;26.40;52.70;;;;;;5068137;28;20858;-80
2023/03/21 12:15:19;;;;;;;2.40;2.10;;;26.50;52.60;;;;;;5067128;28;20942;-80
2023/03/21 12:17:55;;;;;;;2.80;1.83;;;26.40;52.70;;;;;;5056850;28;20542;-80
2023/03/21 12:20:34;;;;;;;4.63;2.33;;;26.40;52.70;;;;;;5067680;28;20461;-81
2023/03/21 12:23:42;;;;;;;2.70;1.90;;;26.40;52.70;;;;;;5064825;28;20512;-80
2023/03/21 12:26:19;;;;;;;2.83;2.00;;;26.30;52.80;;;;;;5051343;28;20910;-79
2023/03/21 12:29:02;;;;;;;3.40;1.70;;;26.30;53.00;;;;;;5053747;28;20500;-79
2023/03/21 12:31:44;;;;;;;2.17;1.50;;;26.30;53.00;;;;;;5081460;28;20451;-79
2023/03/21 12:34:27;;;;;;;2.17;1.97;;;26.20;53.00;;;;;;5062497;28;20501;-79
2023/03/21 12:37:07;;;;;;;1.80;1.70;;;26.20;53.10;;;;;;5052731;28;20461;-80
2023/03/21 12:39:38;;;;;;;2.13;1.93;;;26.20;53.20;;;;;;5066972;28;20949;-80
2023/03/21 12:42:25;;;;;;;2.83;1.80;;;26.20;53.20;;;;;;5072861;28;20534;-80
2023/03/21 12:45:00;;;;;;;1.67;1.43;;;26.10;53.30;;;;;;5062482;28;20543;-79
2023/03/21 12:47:35;;;;;;;2.40;2.20;;;26.10;53.40;;;;;;5046370;28;20999;-80
2023/03/21 12:50:13;;;;;;;1.90;1.70;;;26.10;53.40;;;;;;5072933;28;20492;-79
2023/03/21 12:52:44;;;;;;;1.70;1.60;;;26.10;53.40;;;;;;5070737;28;20491;-79
2023/03/21 12:55:18;;;;;;;2.13;1.80;;;26.00;53.50;;;;;;5075480;28;20476;-80
2023/03/21 12:57:49;;;;;;;2.30;2.10;;;26.00;53.60;;;;;;5071538;28;20448;-81
2023/03/21 13:00:28;;;;;;;2.43;2.23;;;26.00;53.60;;;;;;5060494;28;20655;-84
2023/03/21 13:03:00;;;;;;;2.03;1.90;;;26.00;53.60;;;;;;5064442;28;20454;-82
2023/03/21 13:05:31;;;;;;;2.63;1.97;;;26.00;53.50;;;;;;5069172;28;20497;-81
2023/03/21 13:08:05;;;;;;;2.20;2.00;;;26.00;53.50;;;;;;5065176;28;20503;-81
2023/03/21 13:10:34;;;;;;;1.83;1.73;;;25.90;53.60;;;;;;5063414;28;20484;-81
2023/03/21 13:13:13;;;;;;;3.70;2.30;;;25.90;53.60;;;;;;5053043;28;20454;-81
2023/03/21 13:15:59;;;;;;;1.93;1.73;;;25.80;53.70;;;;;;5053839;28;20969;-82
2023/03/21 13:18:48;;;;;;;3.03;2.07;;;25.80;53.70;;;;;;5057676;28;20453;-82
2023/03/21 13:21:24;;;;;;;2.83;2.17;;;25.70;53.80;;;;;;5051249;28;20461;-81